Protivin, Iowa
Current Conditions -  °F | °C
As of 11:35 PM on Sunday 21 Dec 2014 (Local Time) from KDEH Reporting Station
Haze Haze  
Wind Chill: 27°   Ceiling: 700
Heat Index: 36°   Visibility: 4mi
Dew Point: 36°   Wind: 13mph
Humidity: 100%   Direction: 160°SSE
Pressure: 29.81"   Gusts: 20mph
Location:  43.22°N, 92.09°W
Report Text: KDEH 220535Z AUTO 16011G17KT 4SM BR OVC007 02/02 A2981 RMK AO2
Loading
Personal Weather Stations






























Interactive Weather Map New forecast layout! Learn more

10-Day Weather Forecast

Advertisements
Track Severe Weather on mobile